Time;durP1;ratioP1;P1;durP2;ratioP2;P2;SDS_P1;SDS_P2;PMS_P1;PMS_P2;Temp;Humidity;BMP_temperature;BMP_pressure;BME280_temperature;BME280_humidity;BME280_pressure;Samples;Min_cycle;Max_cycle;Signal;HPM_P1;HPM_P2
2023/06/23 00:02:32;;;;;;;19.23;16.00;;;16.00;99.90;;;;;;7340114;32;20639;-56
2023/06/23 00:06:34;;;;;;;19.33;16.25;;;16.00;99.90;;;;;;7340238;32;20099;-56
2023/06/23 00:10:36;;;;;;;21.95;17.62;;;16.00;99.90;;;;;;7340091;32;20186;-57
2023/06/23 00:14:38;;;;;;;18.48;16.48;;;16.00;99.90;;;;;;7339694;32;20125;-56
2023/06/23 00:18:39;;;;;;;21.58;16.42;;;16.00;99.90;;;;;;7338361;32;20306;-56
2023/06/23 00:22:43;;;;;;;18.83;14.75;;;15.90;99.90;;;;;;7339350;32;20131;-56
2023/06/23 00:26:45;;;;;;;23.00;14.70;;;16.00;99.90;;;;;;7338273;32;21781;-57
2023/06/23 00:30:47;;;;;;;16.20;14.43;;;16.00;99.90;;;;;;7337682;32;20260;-57
2023/06/23 00:34:48;;;;;;;19.27;14.45;;;16.00;99.90;;;;;;7343123;32;20108;-56
2023/06/23 00:38:50;;;;;;;18.23;14.05;;;16.00;99.90;;;;;;7343618;32;21164;-57
2023/06/23 00:42:55;;;;;;;19.75;13.85;;;16.00;99.90;;;;;;7344994;32;20210;-56
2023/06/23 00:46:57;;;;;;;14.80;12.25;;;16.00;99.90;;;;;;7341031;32;20186;-56
2023/06/23 00:50:58;;;;;;;20.42;13.07;;;15.90;99.90;;;;;;7344766;32;20426;-57
2023/06/23 00:55:02;;;;;;;16.00;12.82;;;15.90;99.90;;;;;;7341670;32;20130;-56
2023/06/23 00:59:05;;;;;;;18.83;13.65;;;15.90;99.90;;;;;;7340666;32;20349;-57
2023/06/23 01:03:07;;;;;;;20.58;14.77;;;15.90;99.90;;;;;;7346076;32;20209;-56
2023/06/23 01:07:14;;;;;;;21.40;16.25;;;15.90;99.90;;;;;;7344241;32;20182;-56
2023/06/23 01:11:31;;;;;;;19.67;13.45;;;15.90;99.90;;;;;;7344871;32;20802;-56
2023/06/23 01:15:41;;;;;;;17.90;13.23;;;15.90;99.90;;;;;;7342361;32;20228;-56
2023/06/23 01:19:57;;;;;;;19.92;12.75;;;15.90;99.90;;;;;;7344259;32;20115;-56
2023/06/23 01:24:11;;;;;;;20.12;12.82;;;15.90;99.90;;;;;;7340618;32;20293;-56
2023/06/23 01:28:49;;;;;;;16.42;12.15;;;15.90;99.90;;;;;;7341335;32;20446;-57
2023/06/23 01:32:56;;;;;;;16.40;11.77;;;15.80;99.90;;;;;;7341720;32;20154;-56
2023/06/23 01:37:07;;;;;;;15.88;11.45;;;15.90;99.90;;;;;;7342517;32;20259;-56
2023/06/23 01:41:17;;;;;;;19.48;11.15;;;15.90;99.90;;;;;;7341760;32;20143;-56
2023/06/23 01:45:22;;;;;;;13.93;10.77;;;15.80;99.90;;;;;;7342544;32;20220;-57
2023/06/23 01:49:33;;;;;;;18.35;10.50;;;15.80;99.90;;;;;;7341956;32;20667;-56
2023/06/23 01:53:36;;;;;;;13.60;10.68;;;15.80;99.90;;;;;;7344302;32;20135;-57
2023/06/23 01:57:39;;;;;;;13.77;9.95;;;15.80;99.90;;;;;;7341024;32;20232;-56
2023/06/23 02:01:42;;;;;;;13.23;10.30;;;15.70;99.90;;;;;;7338737;32;20111;-56
2023/06/23 02:05:47;;;;;;;13.15;10.18;;;15.80;99.90;;;;;;7339463;32;20123;-58
2023/06/23 02:09:51;;;;;;;12.50;9.75;;;15.80;99.90;;;;;;7342061;32;20115;-56
2023/06/23 02:13:55;;;;;;;13.43;10.48;;;15.80;99.90;;;;;;7338941;32;20232;-56
2023/06/23 02:17:58;;;;;;;13.90;10.02;;;15.70;99.90;;;;;;7340215;32;20168;-56
2023/06/23 02:22:00;;;;;;;15.38;10.85;;;15.80;99.90;;;;;;7341820;32;20160;-57
2023/06/23 02:26:04;;;;;;;16.50;10.00;;;15.70;99.90;;;;;;7349143;32;20588;-56
2023/06/23 02:30:07;;;;;;;15.20;9.77;;;15.60;99.90;;;;;;7345149;32;20555;-57
2023/06/23 02:34:09;;;;;;;12.57;10.25;;;15.60;99.90;;;;;;7339607;32;20138;-55
2023/06/23 02:38:15;;;;;;;12.90;10.15;;;15.60;99.90;;;;;;7348889;32;20151;-55
2023/06/23 02:42:21;;;;;;;17.37;10.27;;;15.70;99.90;;;;;;7347473;32;20186;-55
2023/06/23 02:46:27;;;;;;;11.93;10.35;;;15.70;99.90;;;;;;7348994;32;20555;-55
2023/06/23 02:50:33;;;;;;;12.48;9.95;;;15.60;99.90;;;;;;7346204;32;20257;-55
2023/06/23 02:54:40;;;;;;;14.57;9.48;;;15.70;99.90;;;;;;7346484;32;20153;-55
2023/06/23 02:58:42;;;;;;;19.30;10.68;;;15.70;99.90;;;;;;7345816;32;20130;-55
2023/06/23 03:02:47;;;;;;;15.40;10.60;;;15.70;99.90;;;;;;7337196;32;20607;-55
2023/06/23 03:06:51;;;;;;;14.00;11.18;;;15.70;99.90;;;;;;7346673;32;20735;-55
2023/06/23 03:10:54;;;;;;;15.15;11.95;;;15.70;99.90;;;;;;7345649;32;20250;-56
2023/06/23 03:14:56;;;;;;;16.52;11.38;;;15.70;99.90;;;;;;7343497;32;20494;-55
2023/06/23 03:19:20;;;;;;;16.00;12.00;;;15.80;99.90;;;;;;7344997;32;20100;-54
2023/06/23 03:23:25;;;;;;;17.87;12.32;;;15.80;99.90;;;;;;7344539;32;20108;-55
2023/06/23 03:27:28;;;;;;;18.27;12.57;;;15.70;99.90;;;;;;7342831;32;20120;-55
2023/06/23 03:31:31;;;;;;;14.90;13.25;;;15.70;99.90;;;;;;7347884;32;20126;-55
2023/06/23 03:35:39;;;;;;;18.87;13.52;;;15.70;99.90;;;;;;7348503;32;20310;-56
2023/06/23 03:39:43;;;;;;;18.02;14.13;;;15.70;99.90;;;;;;7343187;32;20592;-55
2023/06/23 03:43:56;;;;;;;16.90;13.20;;;15.70;99.90;;;;;;7347447;32;20114;-55
2023/06/23 03:48:03;;;;;;;16.17;13.57;;;15.70;99.90;;;;;;7346105;32;20099;-55
2023/06/23 03:52:07;;;;;;;;;;;15.70;99.90;;;;;;7347826;32;20254;-55
2023/06/23 03:56:11;;;;;;;21.58;14.43;;;15.80;99.90;;;;;;7347948;32;20003;-55
2023/06/23 04:00:14;;;;;;;17.75;14.70;;;15.70;99.90;;;;;;7344693;32;20203;-55
2023/06/23 04:04:21;;;;;;;19.67;15.25;;;15.70;99.90;;;;;;7346116;32;20485;-55
2023/06/23 04:08:25;;;;;;;20.45;14.68;;;15.70;99.90;;;;;;7353134;32;20346;-55
2023/06/23 04:12:28;;;;;;;20.48;15.90;;;15.70;99.90;;;;;;7350463;32;20230;-55
2023/06/23 04:16:36;;;;;;;21.80;15.90;;;15.70;99.90;;;;;;7350655;32;20126;-55
2023/06/23 04:20:39;;;;;;;24.83;15.45;;;15.70;99.90;;;;;;7351916;32;20091;-55
2023/06/23 04:24:42;;;;;;;18.70;14.80;;;15.70;99.90;;;;;;7353268;32;20170;-55
2023/06/23 04:28:45;;;;;;;21.92;15.25;;;15.80;99.90;;;;;;7353340;32;20122;-56
2023/06/23 04:32:47;;;;;;;20.92;15.00;;;15.80;99.90;;;;;;7351070;32;20214;-55
2023/06/23 04:37:07;;;;;;;25.15;15.93;;;15.90;99.90;;;;;;7352794;32;20154;-55
2023/06/23 04:41:15;;;;;;;21.52;15.70;;;15.90;99.90;;;;;;7352611;32;20106;-56
2023/06/23 04:45:23;;;;;;;19.08;15.65;;;16.00;99.90;;;;;;7350873;32;20808;-55
2023/06/23 04:49:29;;;;;;;22.98;15.32;;;16.00;99.90;;;;;;7345605;32;20684;-57
2023/06/23 04:53:35;;;;;;;18.58;14.50;;;16.00;99.90;;;;;;7348471;32;20757;-57
2023/06/23 04:57:38;;;;;;;25.27;16.62;;;16.10;99.90;;;;;;7351944;32;20421;-57
2023/06/23 05:01:42;;;;;;;22.70;16.65;;;16.00;99.90;;;;;;7346872;32;20182;-56
2023/06/23 05:05:45;;;;;;;22.73;15.82;;;16.00;99.90;;;;;;7349153;32;20149;-56
2023/06/23 05:09:49;;;;;;;21.23;16.67;;;16.10;99.90;;;;;;7349368;32;20221;-56
2023/06/23 05:13:52;;;;;;;22.75;16.30;;;16.20;99.90;;;;;;7345288;32;20198;-56
2023/06/23 05:17:57;;;;;;;22.55;15.88;;;16.10;99.90;;;;;;7340428;32;20265;-55
2023/06/23 05:22:01;;;;;;;20.90;16.23;;;16.20;99.90;;;;;;7349386;32;20323;-55
2023/06/23 05:26:06;;;;;;;21.52;16.02;;;16.20;99.90;;;;;;7345264;32;20095;-56
2023/06/23 05:30:10;;;;;;;22.90;17.48;;;16.30;99.90;;;;;;7342048;32;20099;-66
2023/06/23 05:34:16;;;;;;;23.08;18.12;;;16.40;99.90;;;;;;7343075;32;20737;-64
2023/06/23 05:38:19;;;;;;;21.02;16.80;;;16.30;99.90;;;;;;7344509;32;20505;-64
2023/06/23 05:42:21;;;;;;;23.33;17.40;;;16.40;99.90;;;;;;7345066;32;20115;-64
2023/06/23 05:46:25;;;;;;;26.92;18.12;;;16.50;99.90;;;;;;7345102;32;20150;-65
2023/06/23 05:50:31;;;;;;;24.95;17.65;;;16.50;99.90;;;;;;7347160;32;20313;-64
2023/06/23 05:54:37;;;;;;;23.65;17.52;;;16.50;99.90;;;;;;7346721;32;20107;-64
2023/06/23 05:58:44;;;;;;;23.08;17.02;;;16.60;99.90;;;;;;7343094;32;20891;-63
2023/06/23 06:02:49;;;;;;;24.45;17.67;;;16.50;99.90;;;;;;7339774;32;20096;-66
2023/06/23 06:06:53;;;;;;;21.98;16.90;;;16.70;99.90;;;;;;7340422;32;20150;-65
2023/06/23 06:10:58;;;;;;;26.08;17.75;;;16.80;99.90;;;;;;7345493;32;20174;-65
2023/06/23 06:15:01;;;;;;;20.20;18.08;;;17.00;99.90;;;;;;7344843;32;20230;-64
2023/06/23 06:19:04;;;;;;;22.37;17.52;;;17.00;99.90;;;;;;7341971;32;20170;-63
2023/06/23 06:23:06;;;;;;;21.95;17.23;;;17.10;99.90;;;;;;7344833;32;20457;-64
2023/06/23 06:27:27;;;;;;;19.65;16.92;;;17.20;99.90;;;;;;7348560;32;20118;-65
2023/06/23 06:31:32;;;;;;;23.20;18.50;;;17.40;99.90;;;;;;7346301;32;20178;-55
2023/06/23 06:35:37;;;;;;;22.70;18.87;;;17.50;99.90;;;;;;7348184;32;20182;-56
2023/06/23 06:39:40;;;;;;;24.15;17.87;;;17.90;99.90;;;;;;7342221;32;20350;-56
2023/06/23 06:43:42;;;;;;;20.60;16.23;;;18.40;99.90;;;;;;7345453;32;20095;-56
2023/06/23 06:47:45;;;;;;;16.45;14.63;;;19.00;99.90;;;;;;7342573;32;20611;-56
2023/06/23 06:51:49;;;;;;;18.77;14.80;;;19.60;99.90;;;;;;7340817;32;20205;-56
2023/06/23 06:55:52;;;;;;;18.33;15.50;;;19.40;99.90;;;;;;7340510;32;20119;-57
2023/06/23 06:59:54;;;;;;;16.65;14.73;;;19.20;99.90;;;;;;7340215;32;20100;-58
2023/06/23 07:03:56;;;;;;;21.37;15.70;;;19.00;99.90;;;;;;7346021;32;20477;-58
2023/06/23 07:07:58;;;;;;;19.33;15.35;;;18.90;99.90;;;;;;7342445;32;20629;-58
2023/06/23 07:12:00;;;;;;;18.70;16.05;;;19.00;99.90;;;;;;7344414;32;20095;-57
2023/06/23 07:16:02;;;;;;;21.40;15.45;;;19.20;99.90;;;;;;7345775;32;20525;-57
2023/06/23 07:20:04;;;;;;;18.33;13.45;;;20.00;99.90;;;;;;7338334;32;20252;-58
2023/06/23 07:24:06;;;;;;;18.77;14.40;;;19.70;99.90;;;;;;7346697;32;20504;-57
2023/06/23 07:28:08;;;;;;;18.92;13.48;;;19.70;99.90;;;;;;7349061;32;20225;-57
2023/06/23 07:32:10;;;;;;;20.02;15.45;;;19.50;99.90;;;;;;7347786;32;20135;-57
2023/06/23 07:36:12;;;;;;;22.00;15.40;;;19.50;99.90;;;;;;7344135;32;20928;-57
2023/06/23 07:40:14;;;;;;;17.83;14.43;;;19.50;99.90;;;;;;7345463;32;20100;-57
2023/06/23 07:44:15;;;;;;;21.17;17.15;;;19.50;99.90;;;;;;7344429;32;20111;-59
2023/06/23 07:48:17;;;;;;;18.33;16.12;;;19.80;99.90;;;;;;7346418;32;20482;-55
2023/06/23 07:52:19;;;;;;;17.60;14.38;;;20.20;99.90;;;;;;7345394;32;20619;-55
2023/06/23 07:56:21;;;;;;;15.63;12.77;;;20.30;99.90;;;;;;7344872;32;20135;-56
2023/06/23 08:00:27;;;;;;;14.48;12.30;;;20.40;99.90;;;;;;7339516;32;20225;-53
2023/06/23 08:04:29;;;;;;;11.53;9.43;;;20.50;99.90;;;;;;7344948;32;20126;-54
2023/06/23 08:08:33;;;;;;;15.40;11.38;;;20.50;99.90;;;;;;7344779;32;20213;-55
2023/06/23 08:12:35;;;;;;;13.98;10.98;;;20.50;99.90;;;;;;7343318;32;20217;-57
2023/06/23 08:16:38;;;;;;;12.25;9.98;;;20.50;99.90;;;;;;7329646;32;20204;-55
2023/06/23 08:20:40;;;;;;;17.48;10.52;;;20.70;99.90;;;;;;7325355;32;20219;-56
2023/06/23 08:24:41;;;;;;;12.95;10.35;;;20.40;99.90;;;;;;7332865;32;20182;-55
2023/06/23 08:28:43;;;;;;;14.93;10.00;;;20.20;99.90;;;;;;7329569;32;20174;-55
2023/06/23 08:32:45;;;;;;;14.45;11.45;;;20.20;99.90;;;;;;7326956;32;20182;-56
2023/06/23 08:36:47;;;;;;;16.52;11.20;;;20.60;99.90;;;;;;7330878;32;20111;-56
2023/06/23 08:40:49;;;;;;;15.55;8.65;;;20.80;99.90;;;;;;7327204;32;20201;-56
2023/06/23 08:44:52;;;;;;;9.27;6.60;;;21.20;99.90;;;;;;7327987;32;20203;-56
2023/06/23 08:48:56;;;;;;;13.85;7.43;;;21.40;99.90;;;;;;7334009;32;20179;-56
2023/06/23 08:52:59;;;;;;;13.70;7.37;;;21.50;99.90;;;;;;7329217;32;20100;-57
2023/06/23 08:57:01;;;;;;;12.90;7.82;;;21.30;99.90;;;;;;7333082;32;20145;-56
2023/06/23 09:01:05;;;;;;;10.85;7.00;;;21.20;99.90;;;;;;7346799;32;20604;-57
2023/06/23 09:05:08;;;;;;;9.35;6.18;;;20.90;99.90;;;;;;7339646;32;20099;-57
2023/06/23 09:09:10;;;;;;;7.32;5.28;;;21.00;99.90;;;;;;7342166;32;20226;-56
2023/06/23 09:13:27;;;;;;;9.60;5.90;;;21.50;99.90;;;;;;7342216;32;20103;-57
2023/06/23 09:17:29;;;;;;;8.25;5.72;;;21.80;99.90;;;;;;7342574;32;20262;-57
2023/06/23 09:21:36;;;;;;;11.25;6.82;;;21.60;99.90;;;;;;7343426;32;20776;-57
2023/06/23 09:25:39;;;;;;;11.82;7.57;;;22.20;99.90;;;;;;7338624;32;20198;-58
2023/06/23 09:29:41;;;;;;;8.07;5.87;;;22.90;99.90;;;;;;7334763;32;20108;-58
2023/06/23 09:33:52;;;;;;;9.88;6.03;;;23.40;99.90;;;;;;7333510;32;20630;-58
2023/06/23 09:37:55;;;;;;;8.93;5.70;;;23.10;99.90;;;;;;7327530;32;20170;-57
2023/06/23 09:41:57;;;;;;;6.57;5.28;;;23.10;99.90;;;;;;7349872;32;20261;-57
2023/06/23 09:46:06;;;;;;;5.93;4.82;;;23.80;99.90;;;;;;7331069;32;20739;-58
2023/06/23 09:50:20;;;;;;;6.05;4.82;;;24.70;99.90;;;;;;7343908;32;20284;-57
2023/06/23 09:54:37;;;;;;;8.85;5.00;;;25.00;99.90;;;;;;7347799;32;20176;-58
2023/06/23 09:58:40;;;;;;;;;;;24.20;99.90;;;;;;7338694;32;20159;-58
2023/06/23 10:02:42;;;;;;;8.18;5.00;;;24.30;99.90;;;;;;7325375;32;20146;-58
2023/06/23 10:06:44;;;;;;;5.45;4.75;;;24.40;99.90;;;;;;7344862;32;20188;-58
2023/06/23 10:10:46;;;;;;;7.43;4.65;;;24.80;99.90;;;;;;7337337;32;20122;-57
2023/06/23 10:14:49;;;;;;;5.87;4.70;;;24.50;99.90;;;;;;7346479;32;20111;-57
2023/06/23 10:18:52;;;;;;;8.73;4.80;;;24.60;99.90;;;;;;7338126;32;20582;-58
2023/06/23 10:22:55;;;;;;;8.05;5.15;;;25.00;99.90;;;;;;7338491;32;20220;-57
2023/06/23 10:26:58;;;;;;;7.03;4.82;;;24.30;99.90;;;;;;7337297;32;20475;-57
2023/06/23 10:31:02;;;;;;;9.90;7.00;;;24.10;99.90;;;;;;7348114;32;20215;-58
2023/06/23 10:35:08;;;;;;;6.95;5.53;;;23.40;99.90;;;;;;7346142;32;20150;-57
2023/06/23 10:39:10;;;;;;;8.30;5.00;;;23.00;99.90;;;;;;7339710;32;20199;-57
2023/06/23 10:43:13;;;;;;;5.05;4.00;;;22.50;99.90;;;;;;7338757;32;20174;-57
2023/06/23 10:47:15;;;;;;;6.20;3.60;;;22.40;99.90;;;;;;7347757;32;20107;-57
2023/06/23 10:51:18;;;;;;;6.82;4.93;;;23.00;99.90;;;;;;7339406;32;20122;-57
2023/06/23 10:55:41;;;;;;;7.05;4.43;;;23.30;99.90;;;;;;7345588;32;20103;-57
2023/06/23 11:00:07;;;;;;;6.57;4.03;;;23.70;99.90;;;;;;7340701;32;20665;-57
2023/06/23 11:04:25;;;;;;;8.85;4.10;;;24.50;99.90;;;;;;7342474;32;20247;-58
2023/06/23 11:08:37;;;;;;;7.05;3.80;;;24.40;99.90;;;;;;7341065;32;20195;-58
2023/06/23 11:12:42;;;;;;;5.03;3.90;;;24.90;99.90;;;;;;7339463;32;20290;-58
2023/06/23 11:16:49;;;;;;;6.03;3.80;;;25.20;99.90;;;;;;7335924;32;20236;-58
2023/06/23 11:20:51;;;;;;;5.57;3.78;;;25.60;99.90;;;;;;7337714;32;20222;-58
2023/06/23 11:24:54;;;;;;;7.90;4.12;;;25.70;99.90;;;;;;7341290;32;20143;-58
2023/06/23 11:28:55;;;;;;;4.10;3.28;;;25.60;99.90;;;;;;7332218;32;20179;-57
2023/06/23 11:33:30;;;;;;;5.70;3.30;;;25.50;99.90;;;;;;7327568;32;20150;-58
2023/06/23 11:37:33;;;;;;;5.43;3.65;;;25.50;99.90;;;;;;7336494;32;20203;-58
2023/06/23 11:41:35;;;;;;;4.75;3.25;;;25.70;99.90;;;;;;7332491;32;20225;-58
2023/06/23 11:45:37;;;;;;;5.80;3.12;;;26.00;99.90;;;;;;7332267;32;20229;-58
2023/06/23 11:49:39;;;;;;;3.58;2.92;;;26.30;99.90;;;;;;7324603;32;20863;-58
2023/06/23 11:53:41;;;;;;;4.53;3.28;;;26.60;99.90;;;;;;7334271;32;20242;-57
2023/06/23 11:57:44;;;;;;;6.43;3.85;;;26.00;99.90;;;;;;7343222;32;20337;-58
2023/06/23 12:01:46;;;;;;;4.35;3.25;;;26.10;99.90;;;;;;7340501;32;20251;-58
2023/06/23 12:05:48;;;;;;;6.55;3.00;;;26.40;99.90;;;;;;7341731;32;20148;-58
2023/06/23 12:09:52;;;;;;;3.65;2.37;;;26.00;99.90;;;;;;7343395;32;20179;-58
2023/06/23 12:13:53;;;;;;;3.62;2.30;;;26.40;99.90;;;;;;7342368;32;20241;-58
2023/06/23 12:17:58;;;;;;;3.40;2.22;;;26.80;99.90;;;;;;7341972;32;20848;-58
2023/06/23 12:22:01;;;;;;;3.97;2.45;;;26.90;99.20;;;;;;7339744;32;20210;-58
2023/06/23 12:26:06;;;;;;;4.68;2.65;;;27.30;98.90;;;;;;7345971;32;20594;-58
2023/06/23 12:30:18;;;;;;;3.12;2.33;;;27.40;99.90;;;;;;7346812;32;20194;-57
2023/06/23 12:34:20;;;;;;;3.05;2.40;;;27.50;98.10;;;;;;7343910;32;20122;-57
2023/06/23 12:38:23;;;;;;;3.47;2.37;;;27.70;97.60;;;;;;7345290;32;20177;-58
2023/06/23 12:42:25;;;;;;;4.75;3.15;;;27.90;96.40;;;;;;7350463;32;20817;-58
2023/06/23 12:46:29;;;;;;;4.87;3.20;;;28.10;99.20;;;;;;7353601;32;20259;-57
2023/06/23 12:50:31;;;;;;;3.85;3.22;;;27.50;96.40;;;;;;7341300;32;20099;-57
2023/06/23 12:54:39;;;;;;;3.17;2.72;;;27.20;99.50;;;;;;7345015;32;20125;-57
2023/06/23 12:58:41;;;;;;;4.07;3.05;;;27.20;98.70;;;;;;7335690;32;20120;-57
2023/06/23 13:02:42;;;;;;;4.32;3.22;;;27.50;99.90;;;;;;7346971;32;20519;-57
2023/06/23 13:06:44;;;;;;;4.37;2.80;;;27.50;98.70;;;;;;7344157;32;20122;-59
2023/06/23 13:10:46;;;;;;;3.92;3.37;;;27.80;99.50;;;;;;7339179;32;20167;-57
2023/06/23 13:14:48;;;;;;;3.65;3.00;;;27.40;99.50;;;;;;7338689;32;20172;-57
2023/06/23 13:18:50;;;;;;;4.28;3.17;;;27.50;99.80;;;;;;7346953;32;20099;-57
2023/06/23 13:22:51;;;;;;;6.65;2.75;;;27.50;96.80;;;;;;7339509;32;20131;-57
2023/06/23 13:26:53;;;;;;;5.93;2.65;;;27.70;99.90;;;;;;7345508;32;20297;-57
2023/06/23 13:30:55;;;;;;;5.50;3.08;;;27.70;97.50;;;;;;7346678;32;20127;-58
2023/06/23 13:34:57;;;;;;;3.42;2.40;;;27.60;98.20;;;;;;7341208;32;20103;-57
2023/06/23 13:38:58;;;;;;;3.17;2.62;;;27.10;98.30;;;;;;7333420;32;20574;-57
2023/06/23 13:43:01;;;;;;;3.75;3.03;;;27.00;98.40;;;;;;7347407;32;20222;-57
2023/06/23 13:47:03;;;;;;;4.00;2.80;;;26.80;97.70;;;;;;7334422;32;20099;-58
2023/06/23 13:51:05;;;;;;;3.97;2.90;;;26.90;97.60;;;;;;7331697;32;20344;-57
2023/06/23 13:55:09;;;;;;;7.30;3.35;;;26.90;97.70;;;;;;7335848;32;20226;-57
2023/06/23 13:59:10;;;;;;;7.37;3.37;;;27.20;99.40;;;;;;7330295;32;20138;-58
2023/06/23 14:03:12;;;;;;;3.95;2.87;;;27.30;97.30;;;;;;7338911;32;20129;-58
2023/06/23 14:07:14;;;;;;;3.53;2.50;;;27.00;98.00;;;;;;7338540;32;20111;-59
2023/06/23 14:11:16;;;;;;;6.65;2.45;;;27.30;98.60;;;;;;7334547;32;20095;-57
2023/06/23 14:15:18;;;;;;;4.97;3.05;;;27.70;96.80;;;;;;7333691;32;20281;-58
2023/06/23 14:19:19;;;;;;;5.05;2.90;;;28.10;94.90;;;;;;7335670;32;20099;-58
2023/06/23 14:23:21;;;;;;;4.12;2.80;;;27.60;94.60;;;;;;7339859;32;20219;-58
2023/06/23 14:27:23;;;;;;;3.47;2.58;;;26.80;97.00;;;;;;7338291;32;20186;-57
2023/06/23 14:31:26;;;;;;;5.00;3.12;;;27.00;96.00;;;;;;7337801;32;20106;-56
2023/06/23 14:35:28;;;;;;;4.07;2.50;;;27.20;97.80;;;;;;7337398;32;20123;-56
2023/06/23 14:39:30;;;;;;;4.00;2.65;;;27.60;96.20;;;;;;7332334;32;20561;-56
2023/06/23 14:43:32;;;;;;;4.43;2.67;;;27.30;96.00;;;;;;7340212;32;20120;-55
2023/06/23 14:47:36;;;;;;;5.20;2.80;;;26.40;97.70;;;;;;7337421;32;20276;-55
2023/06/23 14:51:38;;;;;;;2.42;2.12;;;26.00;98.50;;;;;;7336370;32;20088;-55
2023/06/23 14:55:40;;;;;;;4.47;2.47;;;26.60;98.00;;;;;;7333197;32;20267;-55
2023/06/23 14:59:42;;;;;;;4.22;2.40;;;27.60;97.60;;;;;;7336420;32;20219;-56
2023/06/23 15:03:43;;;;;;;4.55;2.53;;;28.10;97.30;;;;;;7334905;32;20103;-56
2023/06/23 15:07:46;;;;;;;5.45;2.47;;;28.60;95.40;;;;;;7340802;32;20977;-55
2023/06/23 15:11:48;;;;;;;3.90;2.75;;;28.70;94.50;;;;;;7344206;32;20469;-56
2023/06/23 15:15:49;;;;;;;5.70;2.80;;;28.10;94.30;;;;;;7346028;32;20205;-56
2023/06/23 15:19:52;;;;;;;3.87;2.33;;;27.90;94.20;;;;;;7338006;32;20286;-56
2023/06/23 15:23:54;;;;;;;7.55;2.90;;;27.80;96.20;;;;;;7337444;32;20419;-57
2023/06/23 15:27:56;;;;;;;4.50;2.87;;;27.70;93.90;;;;;;7341814;32;20183;-57
2023/06/23 15:31:58;;;;;;;4.80;2.70;;;26.90;95.50;;;;;;7343383;32;20103;-57
2023/06/23 15:36:02;;;;;;;3.75;2.42;;;26.30;97.50;;;;;;7346994;32;22362;-58
2023/06/23 15:40:09;;;;;;;3.55;2.70;;;25.80;96.80;;;;;;7343187;32;20317;-59
2023/06/23 15:44:11;;;;;;;3.45;2.37;;;25.30;98.90;;;;;;7350895;32;20167;-57
2023/06/23 15:48:13;;;;;;;4.55;2.50;;;24.90;99.90;;;;;;7349291;32;20164;-57
2023/06/23 15:52:15;;;;;;;3.80;2.37;;;25.00;99.60;;;;;;7344618;32;20103;-58
2023/06/23 15:56:16;;;;;;;3.15;2.60;;;25.10;99.60;;;;;;7337109;32;20123;-57
2023/06/23 16:00:18;;;;;;;3.35;2.62;;;25.00;99.90;;;;;;7341555;32;20111;-57
2023/06/23 16:04:20;;;;;;;2.85;2.30;;;24.90;99.90;;;;;;7338946;32;20264;-57
2023/06/23 16:08:23;;;;;;;6.03;2.83;;;24.70;99.90;;;;;;7335245;32;20118;-57
2023/06/23 16:12:25;;;;;;;3.78;2.80;;;24.60;99.90;;;;;;7344763;32;20711;-57
2023/06/23 16:16:27;;;;;;;5.65;2.97;;;24.50;99.90;;;;;;7342909;32;20100;-57
2023/06/23 16:20:29;;;;;;;4.43;2.78;;;24.30;99.90;;;;;;7337384;32;20195;-57
2023/06/23 16:24:30;;;;;;;6.95;2.58;;;24.10;99.90;;;;;;7343975;32;20182;-57
2023/06/23 16:28:32;;;;;;;3.70;2.97;;;24.10;99.90;;;;;;7343969;32;20198;-57
2023/06/23 16:32:34;;;;;;;4.03;2.78;;;24.00;99.90;;;;;;7339418;32;20134;-57
2023/06/23 16:36:36;;;;;;;6.03;3.00;;;24.00;99.90;;;;;;7343276;32;20502;-58
2023/06/23 16:40:37;;;;;;;4.10;3.03;;;24.10;99.90;;;;;;7340081;32;20096;-57
2023/06/23 16:44:42;;;;;;;4.82;3.08;;;24.10;99.90;;;;;;7340919;32;20826;-57
2023/06/23 16:48:44;;;;;;;5.20;2.80;;;24.00;99.90;;;;;;7342015;32;20126;-59
2023/06/23 16:52:48;;;;;;;5.35;3.05;;;23.90;99.90;;;;;;7341014;32;20299;-58
2023/06/23 16:56:50;;;;;;;4.47;3.03;;;23.80;99.90;;;;;;7341077;32;20107;-58
2023/06/23 17:00:51;;;;;;;5.78;3.25;;;23.80;99.90;;;;;;7345638;32;20157;-58
2023/06/23 17:04:53;;;;;;;5.68;3.03;;;23.80;99.90;;;;;;7342795;32;20107;-57
2023/06/23 17:08:55;;;;;;;5.07;3.10;;;23.70;99.90;;;;;;7340486;32;20547;-58
2023/06/23 17:12:56;;;;;;;4.40;3.12;;;23.70;99.90;;;;;;7338206;32;20239;-57
2023/06/23 17:16:59;;;;;;;3.87;2.75;;;23.80;99.90;;;;;;7347965;32;20188;-57
2023/06/23 17:21:01;;;;;;;4.82;3.00;;;23.70;99.90;;;;;;7346411;32;20179;-57
2023/06/23 17:25:03;;;;;;;4.35;2.58;;;23.70;99.90;;;;;;7339739;32;20111;-57
2023/06/23 17:29:05;;;;;;;2.92;2.62;;;23.80;99.90;;;;;;7346052;32;20941;-58
2023/06/23 17:33:07;;;;;;;3.05;2.75;;;23.80;99.90;;;;;;7344145;32;20193;-58
2023/06/23 17:37:08;;;;;;;9.52;3.08;;;23.90;99.90;;;;;;7345954;32;20164;-58
2023/06/23 17:41:10;;;;;;;4.68;2.42;;;23.80;99.90;;;;;;7343018;32;20559;-56
2023/06/23 17:45:12;;;;;;;4.50;2.17;;;23.90;99.90;;;;;;7342671;32;20147;-56
2023/06/23 17:49:14;;;;;;;4.90;2.15;;;23.80;99.90;;;;;;7344639;32;20124;-56
2023/06/23 17:53:16;;;;;;;3.87;2.62;;;23.80;99.90;;;;;;7346855;32;20099;-57
2023/06/23 17:57:18;;;;;;;4.85;2.90;;;23.70;99.90;;;;;;7344772;32;20107;-57
2023/06/23 18:01:20;;;;;;;4.05;2.67;;;23.70;99.90;;;;;;7348213;32;20339;-57
2023/06/23 18:05:22;;;;;;;3.97;2.70;;;23.70;99.90;;;;;;7345735;32;20150;-57
2023/06/23 18:09:24;;;;;;;4.18;2.90;;;23.50;99.90;;;;;;7344218;32;20529;-56
2023/06/23 18:13:25;;;;;;;5.47;3.17;;;23.50;99.90;;;;;;7345414;32;20122;-57
2023/06/23 18:17:28;;;;;;;4.35;2.97;;;23.40;99.90;;;;;;7353024;32;20160;-59
2023/06/23 18:21:31;;;;;;;5.00;2.78;;;23.40;99.90;;;;;;7342411;32;20151;-59
2023/06/23 18:25:32;;;;;;;7.25;3.10;;;23.20;99.90;;;;;;7344311;32;20107;-58
2023/06/23 18:29:34;;;;;;;3.10;2.80;;;23.10;99.90;;;;;;7339988;32;20573;-60
2023/06/23 18:33:36;;;;;;;5.18;2.92;;;23.00;99.90;;;;;;7346016;32;20182;-58
2023/06/23 18:37:39;;;;;;;4.90;3.20;;;22.80;99.90;;;;;;7346962;32;20634;-59
2023/06/23 18:41:40;;;;;;;4.70;2.90;;;22.70;99.90;;;;;;7343371;32;20515;-58
2023/06/23 18:45:42;;;;;;;3.72;3.00;;;22.50;99.90;;;;;;7345107;32;20532;-59
2023/06/23 18:49:45;;;;;;;6.62;3.17;;;22.40;99.90;;;;;;7345725;32;20217;-56
2023/06/23 18:53:47;;;;;;;5.50;3.40;;;22.20;99.90;;;;;;7343531;32;20111;-56
2023/06/23 18:57:49;;;;;;;5.30;4.00;;;22.10;99.90;;;;;;7334658;32;20187;-57
2023/06/23 19:01:53;;;;;;;7.05;4.80;;;21.90;99.90;;;;;;7334504;32;20754;-56
2023/06/23 19:05:55;;;;;;;7.95;5.65;;;21.90;99.90;;;;;;7332366;32;21285;-56
2023/06/23 19:09:57;;;;;;;7.97;6.50;;;21.60;99.90;;;;;;7334096;32;20215;-56
2023/06/23 19:14:00;;;;;;;9.70;5.20;;;21.40;99.90;;;;;;7336881;32;20386;-56
2023/06/23 19:18:01;;;;;;;8.48;4.62;;;21.20;99.90;;;;;;7333656;32;21036;-56
2023/06/23 19:22:04;;;;;;;6.70;3.85;;;21.10;99.90;;;;;;7333802;32;20537;-56
2023/06/23 19:26:06;;;;;;;6.43;4.28;;;20.90;99.90;;;;;;7333156;32;20779;-57
2023/06/23 19:30:08;;;;;;;6.18;4.15;;;20.60;99.90;;;;;;7330923;32;20235;-57
2023/06/23 19:34:10;;;;;;;9.75;4.32;;;20.30;99.90;;;;;;7333390;32;20091;-57
2023/06/23 19:38:11;;;;;;;10.15;4.60;;;20.30;99.90;;;;;;7327844;32;20198;-56
2023/06/23 19:42:13;;;;;;;9.75;4.68;;;20.00;99.90;;;;;;7333010;32;20370;-56
2023/06/23 19:46:15;;;;;;;6.40;4.22;;;19.80;99.90;;;;;;7337208;32;20099;-56
2023/06/23 19:50:20;;;;;;;9.55;4.72;;;19.60;99.90;;;;;;7341193;32;20127;-57
2023/06/23 19:54:23;;;;;;;7.10;4.22;;;19.40;99.90;;;;;;7337966;32;20103;-55
2023/06/23 19:58:25;;;;;;;6.65;4.00;;;19.20;99.90;;;;;;7339379;32;20163;-56
2023/06/23 20:02:27;;;;;;;6.68;4.25;;;19.00;99.90;;;;;;7342156;32;20229;-55
2023/06/23 20:06:31;;;;;;;9.93;4.90;;;18.90;99.90;;;;;;7346681;32;20190;-55
2023/06/23 20:10:35;;;;;;;6.12;4.45;;;18.80;99.90;;;;;;7340587;32;20178;-55
2023/06/23 20:14:37;;;;;;;9.10;5.28;;;18.70;99.90;;;;;;7341263;32;20119;-55
2023/06/23 20:18:40;;;;;;;10.85;5.35;;;18.50;99.90;;;;;;7342164;32;20460;-55
2023/06/23 20:22:41;;;;;;;7.90;5.15;;;18.40;99.90;;;;;;7340289;32;20222;-55
2023/06/23 20:26:43;;;;;;;8.30;4.60;;;18.20;99.90;;;;;;7345000;32;20558;-55
2023/06/23 20:30:45;;;;;;;11.65;5.22;;;18.20;99.90;;;;;;7329847;32;20176;-55
2023/06/23 20:34:47;;;;;;;5.35;4.82;;;18.10;99.90;;;;;;7339466;32;20130;-55
2023/06/23 20:38:48;;;;;;;8.25;5.35;;;18.00;99.90;;;;;;7335490;32;20576;-55
2023/06/23 20:42:51;;;;;;;13.32;5.70;;;17.80;99.90;;;;;;7338111;32;20103;-55
2023/06/23 20:46:53;;;;;;;7.15;5.32;;;17.70;99.90;;;;;;7334912;32;20166;-55
2023/06/23 20:50:55;;;;;;;6.72;5.20;;;17.60;99.90;;;;;;7345964;32;20103;-55
2023/06/23 20:54:57;;;;;;;8.02;5.40;;;17.60;99.90;;;;;;7343161;32;20118;-55